createdAt,value
2023-01-29T00:02:06.186Z,13.07
2023-01-29T00:04:35.560Z,12.80
2023-01-29T00:07:03.488Z,13.60
2023-01-29T00:09:32.103Z,14.73
2023-01-29T00:12:00.110Z,14.73
2023-01-29T00:14:28.487Z,13.87
2023-01-29T00:16:56.526Z,13.53
2023-01-29T00:19:24.527Z,17.07
2023-01-29T00:21:54.009Z,13.97
2023-01-29T00:24:22.619Z,13.53
2023-01-29T00:26:51.258Z,17.17
2023-01-29T00:29:19.664Z,15.27
2023-01-29T00:31:48.334Z,15.80
2023-01-29T00:34:16.511Z,17.03
2023-01-29T00:36:45.689Z,14.13
2023-01-29T00:39:15.398Z,16.07
2023-01-29T00:42:00.861Z,15.13
2023-01-29T00:44:46.248Z,15.53
2023-01-29T00:47:28.127Z,17.03
2023-01-29T00:49:56.706Z,15.13
2023-01-29T00:52:27.433Z,18.00
2023-01-29T00:54:59.032Z,20.07
2023-01-29T00:57:28.672Z,16.27
2023-01-29T00:59:56.691Z,18.83
2023-01-29T01:02:42.386Z,18.03
2023-01-29T01:05:18.266Z,19.97
2023-01-29T01:07:47.464Z,16.23
2023-01-29T01:10:24.341Z,15.77
2023-01-29T01:12:55.715Z,16.93
2023-01-29T01:15:24.893Z,20.40
2023-01-29T01:17:57.055Z,21.07
2023-01-29T01:20:25.168Z,18.53
2023-01-29T01:22:54.835Z,19.07
2023-01-29T01:25:25.375Z,18.53
2023-01-29T01:27:54.141Z,18.53
2023-01-29T01:30:22.611Z,16.90
2023-01-29T01:32:50.999Z,17.83
2023-01-29T01:35:19.509Z,19.33
2023-01-29T01:37:47.416Z,18.73
2023-01-29T01:40:18.499Z,21.37
2023-01-29T01:42:49.370Z,22.50
2023-01-29T01:45:23.298Z,21.43
2023-01-29T01:47:55.579Z,19.83
2023-01-29T01:50:28.113Z,22.03
2023-01-29T01:53:00.914Z,20.33
2023-01-29T01:55:31.389Z,23.37
2023-01-29T01:58:05.711Z,21.10
2023-01-29T02:00:33.747Z,20.50
2023-01-29T02:03:20.811Z,23.87
2023-01-29T02:06:06.565Z,19.77
2023-01-29T02:09:01.231Z,22.70
2023-01-29T02:11:29.266Z,21.97
2023-01-29T02:13:59.096Z,24.33
2023-01-29T02:16:27.394Z,25.00
2023-01-29T02:18:55.539Z,20.93
2023-01-29T02:21:51.868Z,22.07
2023-01-29T02:25:09.669Z,23.77
2023-01-29T02:28:02.368Z,22.47
2023-01-29T02:30:38.297Z,22.00
2023-01-29T02:33:15.157Z,24.07
2023-01-29T02:35:47.670Z,24.07
2023-01-29T02:38:24.543Z,24.03
2023-01-29T02:40:59.139Z,20.30
2023-01-29T02:43:38.570Z,22.13
2023-01-29T02:46:16.900Z,21.60
2023-01-29T02:48:51.452Z,23.27
2023-01-29T02:51:25.474Z,22.73
2023-01-29T02:54:01.019Z,24.33
2023-01-29T02:56:34.323Z,24.20
2023-01-29T02:59:09.182Z,23.23
2023-01-29T03:01:42.147Z,23.40
2023-01-29T03:04:15.995Z,22.33
2023-01-29T03:06:49.405Z,22.53
2023-01-29T03:09:23.978Z,23.20
2023-01-29T03:11:55.916Z,23.43
2023-01-29T03:14:52.469Z,26.67
2023-01-29T03:17:23.879Z,22.37
2023-01-29T03:19:52.295Z,24.37
2023-01-29T03:22:23.191Z,26.43
2023-01-29T03:25:12.482Z,26.63
2023-01-29T03:28:03.553Z,25.43
2023-01-29T03:30:52.670Z,25.87
2023-01-29T03:33:22.500Z,25.53
2023-01-29T03:35:54.813Z,28.80
2023-01-29T03:38:22.749Z,28.40
2023-01-29T03:40:58.175Z,32.07
2023-01-29T03:43:33.334Z,32.50
2023-01-29T03:46:09.204Z,27.70
2023-01-29T03:48:40.157Z,31.17
2023-01-29T03:51:23.726Z,29.20
2023-01-29T03:53:57.494Z,32.73
2023-01-29T03:56:38.194Z,31.67
2023-01-29T03:59:12.173Z,29.30
2023-01-29T04:01:48.723Z,33.63
2023-01-29T04:04:22.232Z,29.97
2023-01-29T04:06:53.173Z,31.67
2023-01-29T04:09:25.268Z,33.87
2023-01-29T04:11:59.448Z,30.73
2023-01-29T04:14:27.492Z,29.50
2023-01-29T04:17:01.487Z,32.00
2023-01-29T04:19:29.749Z,31.57
2023-01-29T04:22:05.197Z,31.90
2023-01-29T04:24:33.810Z,34.50
2023-01-29T04:27:15.895Z,36.03
2023-01-29T04:29:57.983Z,33.60
2023-01-29T04:32:33.407Z,31.33
2023-01-29T04:35:05.854Z,30.17
2023-01-29T04:37:41.553Z,33.33
2023-01-29T04:40:24.412Z,30.10
2023-01-29T04:43:01.312Z,31.03
2023-01-29T04:45:45.517Z,32.80
2023-01-29T04:48:23.478Z,34.20
2023-01-29T04:51:04.844Z,33.43
2023-01-29T04:53:42.352Z,31.57
2023-01-29T04:56:20.730Z,31.90
2023-01-29T04:58:53.111Z,30.00
2023-01-29T05:01:25.768Z,31.77
2023-01-29T05:03:57.258Z,31.17
2023-01-29T05:06:26.640Z,32.67
2023-01-29T05:08:55.919Z,31.43
2023-01-29T05:11:26.330Z,35.13
2023-01-29T05:13:55.146Z,33.50
2023-01-29T05:16:27.849Z,33.00
2023-01-29T05:18:57.271Z,31.47
2023-01-29T05:21:25.997Z,33.70
2023-01-29T05:24:19.150Z,43.93
2023-01-29T05:27:08.054Z,33.07
2023-01-29T05:29:36.114Z,32.47
2023-01-29T05:32:04.495Z,31.80
2023-01-29T05:34:34.316Z,33.57
2023-01-29T05:37:02.314Z,34.77
2023-01-29T05:39:30.351Z,33.83
2023-01-29T05:41:58.511Z,31.43
2023-01-29T05:44:26.610Z,33.83
2023-01-29T05:46:54.465Z,30.07
2023-01-29T05:49:22.724Z,33.37
2023-01-29T05:51:51.995Z,35.53
2023-01-29T05:54:19.950Z,30.73
2023-01-29T05:56:48.231Z,32.60
2023-01-29T05:59:16.654Z,34.87
2023-01-29T06:01:44.710Z,33.53
2023-01-29T06:04:12.767Z,31.97
2023-01-29T06:06:40.864Z,37.67
2023-01-29T06:09:11.859Z,36.27
2023-01-29T06:11:39.742Z,31.60
2023-01-29T06:14:07.676Z,32.03
2023-01-29T06:16:35.627Z,34.67
2023-01-29T06:19:03.532Z,32.33
2023-01-29T06:21:31.445Z,33.43
2023-01-29T06:23:59.360Z,33.80
2023-01-29T06:26:28.900Z,31.63
2023-01-29T06:28:57.039Z,35.07
2023-01-29T06:31:40.483Z,34.27
2023-01-29T06:34:08.952Z,31.73
2023-01-29T06:36:37.331Z,34.23
2023-01-29T06:39:05.912Z,31.37
2023-01-29T06:41:36.370Z,35.10
2023-01-29T06:44:04.320Z,31.77
2023-01-29T06:46:32.439Z,33.23
2023-01-29T06:49:01.566Z,32.47
2023-01-29T06:51:29.410Z,32.13
2023-01-29T06:53:57.457Z,32.57
2023-01-29T06:56:25.843Z,33.33
2023-01-29T06:58:55.354Z,32.80
2023-01-29T07:01:34.993Z,33.53
2023-01-29T07:04:04.272Z,30.37
2023-01-29T07:06:32.602Z,34.90
2023-01-29T07:09:00.464Z,33.63
2023-01-29T07:11:28.321Z,38.63
2023-01-29T07:13:57.586Z,37.30
2023-01-29T07:16:26.399Z,31.67
2023-01-29T07:18:55.000Z,32.77
2023-01-29T07:21:23.034Z,36.63
2023-01-29T07:23:50.923Z,38.47
2023-01-29T07:26:19.123Z,34.67
2023-01-29T07:28:46.984Z,30.50
2023-01-29T07:31:16.855Z,32.40
2023-01-29T07:33:45.504Z,37.87
2023-01-29T07:36:14.512Z,31.23
2023-01-29T07:38:42.483Z,28.93
2023-01-29T07:41:12.438Z,30.47
2023-01-29T07:43:40.399Z,31.67
2023-01-29T07:46:08.445Z,38.47
2023-01-29T07:48:38.001Z,30.87
2023-01-29T07:51:06.592Z,35.80
2023-01-29T07:53:34.615Z,31.97
2023-01-29T07:56:02.530Z,36.50
2023-01-29T07:58:30.448Z,32.97
2023-01-29T08:00:58.362Z,29.00
2023-01-29T08:03:26.360Z,31.53
2023-01-29T08:05:55.585Z,31.87
2023-01-29T08:08:23.531Z,34.17
2023-01-29T08:10:51.462Z,31.60
2023-01-29T08:13:19.445Z,35.43
2023-01-29T08:15:47.443Z,34.73
2023-01-29T08:18:16.177Z,34.57
2023-01-29T08:20:44.036Z,36.87
2023-01-29T08:23:15.727Z,37.77
2023-01-29T08:25:43.676Z,36.53
2023-01-29T08:28:12.470Z,33.77
2023-01-29T08:30:40.860Z,34.40
2023-01-29T08:33:08.829Z,38.37
2023-01-29T08:35:36.733Z,35.87
2023-01-29T08:38:06.169Z,33.17
2023-01-29T08:40:36.573Z,33.40
2023-01-29T08:43:09.165Z,32.87
2023-01-29T08:45:39.182Z,33.20
2023-01-29T08:48:07.718Z,32.90
2023-01-29T08:50:36.494Z,31.37
2023-01-29T08:53:07.577Z,36.20
2023-01-29T08:55:38.601Z,37.20
2023-01-29T08:58:07.360Z,35.23
2023-01-29T09:00:36.095Z,30.30
2023-01-29T09:03:04.280Z,34.73
2023-01-29T09:05:32.338Z,31.30
2023-01-29T09:08:00.409Z,29.47
2023-01-29T09:10:28.284Z,31.53
2023-01-29T09:12:57.740Z,33.30
2023-01-29T09:15:25.824Z,29.47
2023-01-29T09:17:54.036Z,27.77
2023-01-29T09:20:22.237Z,32.47
2023-01-29T09:22:56.668Z,33.77
2023-01-29T09:25:24.737Z,29.57
2023-01-29T09:27:52.805Z,32.20
2023-01-29T09:30:22.151Z,29.77
2023-01-29T09:32:53.654Z,30.63
2023-01-29T09:35:22.755Z,27.70
2023-01-29T09:37:50.903Z,30.90
2023-01-29T09:40:27.074Z,27.93
2023-01-29T09:42:59.936Z,32.43
2023-01-29T09:45:30.497Z,31.73
2023-01-29T09:48:02.300Z,29.73
2023-01-29T09:50:36.150Z,31.03
2023-01-29T09:53:09.770Z,27.37
2023-01-29T09:55:44.806Z,29.30
2023-01-29T09:58:19.232Z,28.70
2023-01-29T10:00:58.418Z,27.23
2023-01-29T10:03:43.003Z,28.40
2023-01-29T10:06:24.904Z,26.00
2023-01-29T10:09:25.057Z,26.00
2023-01-29T10:12:06.615Z,26.20
2023-01-29T10:14:44.474Z,29.50
2023-01-29T10:17:34.939Z,27.20
2023-01-29T10:20:19.947Z,24.27
2023-01-29T10:23:02.242Z,24.83
2023-01-29T10:25:30.221Z,24.37
2023-01-29T10:28:00.765Z,27.90
2023-01-29T10:30:33.270Z,25.03
2023-01-29T10:33:04.923Z,25.47
2023-01-29T10:35:36.893Z,24.97
2023-01-29T10:38:22.572Z,25.30
2023-01-29T10:40:55.934Z,25.17
2023-01-29T10:43:32.359Z,22.40
2023-01-29T10:46:11.708Z,23.13
2023-01-29T10:48:50.456Z,21.80
2023-01-29T10:51:32.429Z,20.50
2023-01-29T10:54:16.676Z,22.77
2023-01-29T10:57:00.148Z,20.63
2023-01-29T10:59:41.095Z,23.27
2023-01-29T11:02:18.843Z,20.57
2023-01-29T11:04:49.097Z,21.90
2023-01-29T11:07:21.255Z,22.83
2023-01-29T11:09:57.635Z,20.70
2023-01-29T11:12:30.897Z,20.30
2023-01-29T11:15:03.333Z,21.80
2023-01-29T11:17:35.958Z,24.00
2023-01-29T11:20:26.743Z,21.47
2023-01-29T11:22:56.702Z,20.20
2023-01-29T11:25:25.127Z,24.97
2023-01-29T11:27:56.178Z,21.00
2023-01-29T11:30:27.079Z,19.13
2023-01-29T11:33:09.791Z,18.60
2023-01-29T11:35:41.500Z,21.20
2023-01-29T11:38:19.619Z,19.07
2023-01-29T11:40:47.827Z,20.00
2023-01-29T11:43:31.606Z,20.93
2023-01-29T11:46:02.955Z,20.43
2023-01-29T11:48:42.543Z,22.87
2023-01-29T11:51:21.572Z,19.60
2023-01-29T11:53:55.023Z,18.30
2023-01-29T11:56:31.304Z,23.77
2023-01-29T11:59:00.111Z,17.50
2023-01-29T12:01:34.338Z,19.50
2023-01-29T12:04:03.763Z,19.13
2023-01-29T12:06:38.103Z,21.30
2023-01-29T12:09:15.963Z,18.97
2023-01-29T12:11:44.938Z,19.30
2023-01-29T12:14:27.910Z,21.60
2023-01-29T12:17:00.971Z,20.20
2023-01-29T12:19:36.471Z,17.37
2023-01-29T12:22:11.336Z,21.63
2023-01-29T12:24:45.439Z,20.37
2023-01-29T12:27:20.353Z,19.50
2023-01-29T12:29:53.743Z,19.43
2023-01-29T12:32:33.841Z,21.27
2023-01-29T12:35:07.325Z,18.77
2023-01-29T12:37:46.156Z,22.43
2023-01-29T12:40:16.594Z,21.40
2023-01-29T12:42:49.977Z,21.80
2023-01-29T12:45:20.789Z,19.67
2023-01-29T12:47:51.975Z,20.73
2023-01-29T12:50:23.138Z,19.63
2023-01-29T12:52:56.797Z,19.90
2023-01-29T12:55:29.069Z,21.37
2023-01-29T12:57:59.866Z,20.43
2023-01-29T13:00:32.821Z,22.73
2023-01-29T13:03:05.662Z,20.27
2023-01-29T13:05:40.719Z,20.73
2023-01-29T13:08:15.935Z,18.43
2023-01-29T13:10:47.885Z,20.80
2023-01-29T13:13:23.201Z,19.03
2023-01-29T13:15:51.224Z,19.57
2023-01-29T13:18:37.169Z,20.30
2023-01-29T13:21:06.593Z,22.00
2023-01-29T13:23:40.627Z,22.40
2023-01-29T13:26:08.968Z,20.20
2023-01-29T13:28:37.886Z,22.37
2023-01-29T13:31:18.279Z,24.13
2023-01-29T13:33:55.124Z,22.23
2023-01-29T13:36:29.110Z,21.67
2023-01-29T13:39:03.782Z,22.63
2023-01-29T13:41:41.691Z,22.33
2023-01-29T13:44:22.116Z,25.83
2023-01-29T13:46:53.208Z,39.07
2023-01-29T13:49:35.812Z,25.73
2023-01-29T13:52:27.330Z,25.07
2023-01-29T13:55:00.329Z,27.20
2023-01-29T13:57:55.972Z,23.30
2023-01-29T14:00:52.449Z,24.10
2023-01-29T14:04:05.726Z,25.00
2023-01-29T14:06:41.234Z,29.70
2023-01-29T14:09:59.323Z,28.10
2023-01-29T14:12:39.149Z,28.93
2023-01-29T14:15:21.506Z,30.97
2023-01-29T14:18:03.951Z,27.40
2023-01-29T14:20:47.250Z,27.33
2023-01-29T14:23:28.449Z,31.93
2023-01-29T14:25:57.429Z,26.97
2023-01-29T14:28:30.581Z,30.77
2023-01-29T14:30:59.084Z,32.20
2023-01-29T14:33:34.795Z,29.23
2023-01-29T14:36:13.884Z,28.20
2023-01-29T14:38:47.207Z,29.13
2023-01-29T14:41:25.467Z,28.83
2023-01-29T14:44:33.736Z,31.37
2023-01-29T14:47:01.861Z,29.60
2023-01-29T14:49:55.412Z,30.43
2023-01-29T14:52:27.983Z,27.40
2023-01-29T14:55:00.820Z,31.47
2023-01-29T14:57:31.953Z,26.93
2023-01-29T15:00:05.396Z,27.10
2023-01-29T15:02:41.023Z,28.43
2023-01-29T15:05:13.355Z,30.27
2023-01-29T15:07:48.557Z,31.10
2023-01-29T15:10:23.404Z,31.50
2023-01-29T15:12:58.216Z,30.77
2023-01-29T15:15:39.327Z,30.33
2023-01-29T15:18:10.291Z,24.73
2023-01-29T15:20:40.232Z,27.20
2023-01-29T15:23:25.453Z,28.17
2023-01-29T15:25:56.085Z,24.60
2023-01-29T15:28:24.153Z,26.53
2023-01-29T15:30:56.923Z,26.00
2023-01-29T15:33:25.045Z,25.20
2023-01-29T15:36:06.758Z,25.70
2023-01-29T15:38:35.113Z,25.47
2023-01-29T15:41:04.846Z,27.50
2023-01-29T15:43:36.464Z,25.20
2023-01-29T15:46:11.060Z,25.70
2023-01-29T15:48:41.205Z,23.93
2023-01-29T15:51:12.000Z,26.77
2023-01-29T15:53:52.544Z,27.57
2023-01-29T15:56:25.140Z,26.43
2023-01-29T15:58:54.111Z,25.50
2023-01-29T16:01:23.749Z,28.43
2023-01-29T16:03:51.967Z,27.67
2023-01-29T16:06:20.598Z,42.77
2023-01-29T16:08:52.362Z,33.93
2023-01-29T16:11:21.179Z,32.03
2023-01-29T16:13:51.440Z,32.83
2023-01-29T16:16:25.417Z,54.17
2023-01-29T16:19:00.336Z,34.70
2023-01-29T16:21:31.681Z,29.80
2023-01-29T16:24:02.086Z,35.63
2023-01-29T16:26:34.042Z,36.10
2023-01-29T16:29:06.559Z,34.27
2023-01-29T16:31:37.819Z,30.23
2023-01-29T16:34:10.144Z,26.90
2023-01-29T16:36:38.236Z,25.67
2023-01-29T16:39:15.633Z,29.53
2023-01-29T16:41:44.429Z,24.57
2023-01-29T16:44:39.414Z,24.33
2023-01-29T16:47:13.712Z,60.30
2023-01-29T16:49:54.921Z,26.80
2023-01-29T16:52:26.591Z,26.53
2023-01-29T16:54:59.951Z,26.10
2023-01-29T16:57:33.042Z,26.30
2023-01-29T17:00:04.731Z,26.67
2023-01-29T17:02:39.629Z,24.43
2023-01-29T17:05:10.958Z,23.07
2023-01-29T17:07:39.753Z,28.67
2023-01-29T17:10:09.073Z,26.20
2023-01-29T17:12:38.874Z,28.13
2023-01-29T17:15:37.475Z,24.70
2023-01-29T17:18:17.032Z,24.73
2023-01-29T17:20:45.057Z,26.10
2023-01-29T17:23:13.028Z,26.83
2023-01-29T17:25:41.291Z,24.23
2023-01-29T17:28:12.278Z,23.40
2023-01-29T17:30:40.357Z,26.27
2023-01-29T17:33:14.439Z,28.03
2023-01-29T17:35:45.621Z,24.60
2023-01-29T17:38:25.636Z,25.07
2023-01-29T17:40:57.026Z,24.43
2023-01-29T17:43:25.088Z,23.83
2023-01-29T17:45:53.052Z,23.03
2023-01-29T17:48:24.594Z,23.70
2023-01-29T17:50:54.880Z,26.27
2023-01-29T17:53:26.578Z,24.43
2023-01-29T17:55:58.568Z,24.90
2023-01-29T17:58:28.638Z,24.43
2023-01-29T18:00:56.823Z,22.70
2023-01-29T18:03:26.602Z,23.70
2023-01-29T18:05:54.465Z,21.47
2023-01-29T18:08:29.692Z,21.43
2023-01-29T18:10:57.973Z,22.43
2023-01-29T18:13:25.988Z,20.40
2023-01-29T18:15:54.252Z,21.97
2023-01-29T18:18:23.705Z,23.60
2023-01-29T18:20:53.048Z,20.07
2023-01-29T18:23:21.264Z,23.07
2023-01-29T18:25:49.159Z,19.90
2023-01-29T18:28:18.306Z,20.07
2023-01-29T18:30:47.567Z,24.30
2023-01-29T18:33:16.906Z,21.77
2023-01-29T18:35:45.154Z,20.87
2023-01-29T18:38:14.875Z,22.33
2023-01-29T18:40:42.658Z,20.30
2023-01-29T18:43:10.429Z,20.47
2023-01-29T18:45:38.338Z,21.70
2023-01-29T18:48:07.045Z,20.70
2023-01-29T18:50:35.427Z,20.83
2023-01-29T18:53:04.393Z,22.13
2023-01-29T18:55:33.956Z,18.37
2023-01-29T18:58:27.933Z,19.33
2023-01-29T19:00:49.675Z,17.33
2023-01-29T19:03:18.310Z,20.57
2023-01-29T19:05:46.249Z,20.73
2023-01-29T19:08:14.405Z,23.40
2023-01-29T19:10:43.597Z,17.60
2023-01-29T19:13:11.444Z,17.27
2023-01-29T19:15:43.453Z,17.90
2023-01-29T19:18:14.643Z,19.57
2023-01-29T19:20:42.962Z,20.67
2023-01-29T19:23:11.031Z,19.43
2023-01-29T19:25:39.339Z,18.50
2023-01-29T19:28:09.022Z,18.20
2023-01-29T19:30:37.154Z,16.83
2023-01-29T19:33:05.441Z,16.30
2023-01-29T19:35:34.054Z,16.27
2023-01-29T19:38:02.227Z,17.03
2023-01-29T19:40:30.125Z,14.57
2023-01-29T19:42:58.662Z,15.73
2023-01-29T19:45:49.183Z,16.13
2023-01-29T19:48:20.138Z,14.87
2023-01-29T19:50:53.009Z,16.80
2023-01-29T19:53:20.880Z,16.23
2023-01-29T19:55:48.784Z,16.03
2023-01-29T19:58:16.603Z,15.83
2023-01-29T20:00:45.719Z,16.87
2023-01-29T20:03:13.565Z,14.83
2023-01-29T20:05:41.464Z,15.43
2023-01-29T20:08:09.627Z,15.27
2023-01-29T20:10:37.614Z,16.90
2023-01-29T20:13:06.204Z,14.87
2023-01-29T20:15:34.388Z,16.83
2023-01-29T20:18:05.623Z,15.90
2023-01-29T20:20:33.729Z,16.80
2023-01-29T20:23:04.624Z,16.13
2023-01-29T20:25:32.643Z,14.90
2023-01-29T20:28:00.632Z,14.90
2023-01-29T20:30:28.588Z,16.93
2023-01-29T20:32:56.469Z,15.73
2023-01-29T20:35:25.809Z,16.40
2023-01-29T20:37:53.612Z,17.33
2023-01-29T20:40:21.495Z,16.80
2023-01-29T20:42:49.808Z,16.10
2023-01-29T20:45:18.144Z,15.87
2023-01-29T20:47:46.083Z,16.80
2023-01-29T20:50:16.106Z,15.63
2023-01-29T20:52:45.904Z,16.73
2023-01-29T20:55:14.489Z,15.70
2023-01-29T20:57:42.456Z,17.00
2023-01-29T21:00:12.878Z,15.90
2023-01-29T21:02:40.949Z,15.67
2023-01-29T21:05:09.163Z,15.00
2023-01-29T21:07:37.211Z,16.57
2023-01-29T21:10:07.324Z,17.83
2023-01-29T21:12:35.332Z,16.87
2023-01-29T21:15:03.322Z,15.03
2023-01-29T21:17:31.098Z,14.80
2023-01-29T21:19:58.854Z,15.37
2023-01-29T21:22:26.801Z,15.17
2023-01-29T21:24:54.638Z,16.73
2023-01-29T21:27:25.273Z,14.97
2023-01-29T21:29:53.125Z,18.20
2023-01-29T21:32:21.101Z,15.27
2023-01-29T21:34:50.521Z,13.43
2023-01-29T21:37:19.411Z,15.37
2023-01-29T21:39:47.290Z,13.17
2023-01-29T21:42:32.744Z,17.33
2023-01-29T21:45:01.865Z,14.17
2023-01-29T21:47:29.668Z,17.63
2023-01-29T21:49:57.612Z,15.53
2023-01-29T21:52:25.519Z,15.80
2023-01-29T21:54:53.405Z,15.30
2023-01-29T21:57:21.352Z,17.20
2023-01-29T21:59:52.852Z,15.60
2023-01-29T22:02:23.656Z,15.30
2023-01-29T22:04:52.292Z,15.00
2023-01-29T22:07:20.205Z,14.23
2023-01-29T22:09:48.267Z,16.77
2023-01-29T22:12:16.663Z,15.83
2023-01-29T22:14:44.736Z,15.27
2023-01-29T22:17:12.746Z,16.50
2023-01-29T22:19:42.980Z,14.07
2023-01-29T22:22:14.643Z,13.43
2023-01-29T22:24:44.754Z,15.33
2023-01-29T22:27:12.767Z,14.73
2023-01-29T22:29:40.608Z,14.93
2023-01-29T22:32:08.688Z,14.50
2023-01-29T22:34:36.845Z,13.97
2023-01-29T22:37:06.426Z,15.63
2023-01-29T22:39:34.304Z,14.27
2023-01-29T22:42:02.230Z,14.10
2023-01-29T22:44:30.188Z,15.33
2023-01-29T22:46:58.287Z,15.40
2023-01-29T22:49:27.921Z,14.60
2023-01-29T22:52:09.736Z,14.50
2023-01-29T22:54:40.345Z,13.50
2023-01-29T22:57:11.231Z,13.20
2023-01-29T22:59:40.027Z,12.07
2023-01-29T23:02:09.150Z,15.67
2023-01-29T23:04:37.154Z,13.53
2023-01-29T23:07:05.352Z,16.70
2023-01-29T23:09:33.154Z,13.90
2023-01-29T23:12:02.438Z,15.10
2023-01-29T23:14:30.360Z,16.60
2023-01-29T23:16:58.225Z,13.33
2023-01-29T23:19:27.210Z,15.70
2023-01-29T23:21:55.121Z,15.27
2023-01-29T23:24:23.241Z,17.13
2023-01-29T23:27:08.837Z,12.93
2023-01-29T23:29:38.336Z,14.83
2023-01-29T23:32:07.093Z,12.10
2023-01-29T23:34:35.253Z,16.00
2023-01-29T23:37:03.206Z,14.47
2023-01-29T23:39:30.940Z,16.67
2023-01-29T23:41:58.929Z,13.03
2023-01-29T23:44:26.707Z,14.47
2023-01-29T23:46:56.208Z,13.23
2023-01-29T23:49:24.215Z,14.67
2023-01-29T23:51:52.308Z,14.70
2023-01-29T23:54:20.149Z,16.37
2023-01-29T23:56:48.216Z,14.27
2023-01-29T23:59:16.120Z,15.20
